sensor_id;sensor_type;location;lat;lon;timestamp;temperature;humidity
48454;DHT22;34261;55.678;12.464;2022-09-28T00:00:56;12.60;99.90
48454;DHT22;34261;55.678;12.464;2022-09-28T00:03:21;12.70;99.90
48454;DHT22;34261;55.678;12.464;2022-09-28T00:05:47;12.60;99.90
48454;DHT22;34261;55.678;12.464;2022-09-28T00:08:12;12.60;99.90
48454;DHT22;34261;55.678;12.464;2022-09-28T00:10:38;12.60;99.90
48454;DHT22;34261;55.678;12.464;2022-09-28T00:13:07;12.60;99.90
48454;DHT22;34261;55.678;12.464;2022-09-28T00:15:33;12.70;99.90
48454;DHT22;34261;55.678;12.464;2022-09-28T00:17:59;12.60;99.90
48454;DHT22;34261;55.678;12.464;2022-09-28T00:20:24;12.60;99.90
48454;DHT22;34261;55.678;12.464;2022-09-28T00:22:50;12.60;99.90
48454;DHT22;34261;55.678;12.464;2022-09-28T00:25:16;12.60;99.90
48454;DHT22;34261;55.678;12.464;2022-09-28T00:27:42;12.70;99.90
48454;DHT22;34261;55.678;12.464;2022-09-28T00:30:08;12.70;99.90
48454;DHT22;34261;55.678;12.464;2022-09-28T00:32:34;12.60;99.90
48454;DHT22;34261;55.678;12.464;2022-09-28T00:35:00;12.60;99.90
48454;DHT22;34261;55.678;12.464;2022-09-28T00:37:25;12.70;99.90
48454;DHT22;34261;55.678;12.464;2022-09-28T00:39:51;12.70;99.90
48454;DHT22;34261;55.678;12.464;2022-09-28T00:42:22;12.60;99.90
48454;DHT22;34261;55.678;12.464;2022-09-28T00:44:58;12.60;99.90
48454;DHT22;34261;55.678;12.464;2022-09-28T00:47:47;12.60;99.90
48454;DHT22;34261;55.678;12.464;2022-09-28T00:50:35;12.60;99.90
48454;DHT22;34261;55.678;12.464;2022-09-28T00:53:11;12.60;99.90
48454;DHT22;34261;55.678;12.464;2022-09-28T00:56:05;12.60;99.90
48454;DHT22;34261;55.678;12.464;2022-09-28T00:58:37;12.70;99.90
48454;DHT22;34261;55.678;12.464;2022-09-28T01:01:04;12.60;99.90
48454;DHT22;34261;55.678;12.464;2022-09-28T01:03:32;12.60;99.90
48454;DHT22;34261;55.678;12.464;2022-09-28T01:06:00;12.60;99.90
48454;DHT22;34261;55.678;12.464;2022-09-28T01:08:28;12.60;99.90
48454;DHT22;34261;55.678;12.464;2022-09-28T01:10:56;12.60;99.90
48454;DHT22;34261;55.678;12.464;2022-09-28T01:13:22;12.70;99.90
48454;DHT22;34261;55.678;12.464;2022-09-28T01:16:03;12.70;99.90
48454;DHT22;34261;55.678;12.464;2022-09-28T01:18:46;12.70;99.90
48454;DHT22;34261;55.678;12.464;2022-09-28T01:21:19;12.60;99.90
48454;DHT22;34261;55.678;12.464;2022-09-28T01:29:26;12.60;99.90
48454;DHT22;34261;55.678;12.464;2022-09-28T01:34:56;12.60;99.90
48454;DHT22;34261;55.678;12.464;2022-09-28T01:37:29;12.50;99.90
48454;DHT22;34261;55.678;12.464;2022-09-28T01:39:57;12.60;99.90
48454;DHT22;34261;55.678;12.464;2022-09-28T01:42:29;12.50;99.90
48454;DHT22;34261;55.678;12.464;2022-09-28T01:45:02;12.50;99.90
48454;DHT22;34261;55.678;12.464;2022-09-28T01:47:32;12.50;99.90
48454;DHT22;34261;55.678;12.464;2022-09-28T01:50:19;12.50;99.90
48454;DHT22;34261;55.678;12.464;2022-09-28T01:53:07;12.50;99.90
48454;DHT22;34261;55.678;12.464;2022-09-28T01:55:48;12.40;99.90
48454;DHT22;34261;55.678;12.464;2022-09-28T01:58:27;12.40;99.90
48454;DHT22;34261;55.678;12.464;2022-09-28T02:01:08;12.40;99.90
48454;DHT22;34261;55.678;12.464;2022-09-28T02:03:40;12.30;99.90
48454;DHT22;34261;55.678;12.464;2022-09-28T02:06:15;12.40;99.90
48454;DHT22;34261;55.678;12.464;2022-09-28T02:08:48;12.30;99.90
48454;DHT22;34261;55.678;12.464;2022-09-28T02:11:19;12.30;99.90
48454;DHT22;34261;55.678;12.464;2022-09-28T02:13:48;12.30;99.90
48454;DHT22;34261;55.678;12.464;2022-09-28T02:19:14;12.30;99.90
48454;DHT22;34261;55.678;12.464;2022-09-28T02:27:16;12.40;99.90
48454;DHT22;34261;55.678;12.464;2022-09-28T02:29:43;12.30;99.90
48454;DHT22;34261;55.678;12.464;2022-09-28T02:32:09;12.30;99.90
48454;DHT22;34261;55.678;12.464;2022-09-28T02:34:35;12.30;99.90
48454;DHT22;34261;55.678;12.464;2022-09-28T02:37:02;12.40;99.90
48454;DHT22;34261;55.678;12.464;2022-09-28T02:39:28;12.40;99.90
48454;DHT22;34261;55.678;12.464;2022-09-28T02:51:14;12.40;99.90
48454;DHT22;34261;55.678;12.464;2022-09-28T02:53:52;12.40;99.90
48454;DHT22;34261;55.678;12.464;2022-09-28T03:07:40;12.40;99.90
48454;DHT22;34261;55.678;12.464;2022-09-28T03:10:14;12.40;99.90
48454;DHT22;34261;55.678;12.464;2022-09-28T03:12:43;12.20;99.90
48454;DHT22;34261;55.678;12.464;2022-09-28T03:17:35;12.10;99.90
48454;DHT22;34261;55.678;12.464;2022-09-28T03:20:02;12.10;99.90
48454;DHT22;34261;55.678;12.464;2022-09-28T03:22:28;12.10;99.90
48454;DHT22;34261;55.678;12.464;2022-09-28T03:24:54;12.00;99.90
48454;DHT22;34261;55.678;12.464;2022-09-28T03:27:19;11.90;99.90
48454;DHT22;34261;55.678;12.464;2022-09-28T03:29:46;11.80;99.90
48454;DHT22;34261;55.678;12.464;2022-09-28T03:32:11;11.90;99.90
48454;DHT22;34261;55.678;12.464;2022-09-28T03:34:37;11.90;99.90
48454;DHT22;34261;55.678;12.464;2022-09-28T03:37:03;11.90;99.90
48454;DHT22;34261;55.678;12.464;2022-09-28T03:39:28;11.80;99.90
48454;DHT22;34261;55.678;12.464;2022-09-28T03:41:54;11.80;99.90
48454;DHT22;34261;55.678;12.464;2022-09-28T03:44:20;11.80;99.90
48454;DHT22;34261;55.678;12.464;2022-09-28T03:46:45;11.80;99.90
48454;DHT22;34261;55.678;12.464;2022-09-28T03:49:11;11.70;99.90
48454;DHT22;34261;55.678;12.464;2022-09-28T03:51:37;11.80;99.90
48454;DHT22;34261;55.678;12.464;2022-09-28T03:54:03;11.80;99.90
48454;DHT22;34261;55.678;12.464;2022-09-28T03:56:29;11.80;99.90
48454;DHT22;34261;55.678;12.464;2022-09-28T03:58:54;11.80;99.90
48454;DHT22;34261;55.678;12.464;2022-09-28T04:01:20;11.80;99.90
48454;DHT22;34261;55.678;12.464;2022-09-28T04:03:46;11.80;99.90
48454;DHT22;34261;55.678;12.464;2022-09-28T04:06:13;11.80;99.90
48454;DHT22;34261;55.678;12.464;2022-09-28T04:08:38;11.80;99.90
48454;DHT22;34261;55.678;12.464;2022-09-28T04:11:04;11.80;99.90
48454;DHT22;34261;55.678;12.464;2022-09-28T04:13:30;11.80;99.90
48454;DHT22;34261;55.678;12.464;2022-09-28T04:15:58;11.80;99.90
48454;DHT22;34261;55.678;12.464;2022-09-28T04:18:24;11.80;99.90
48454;DHT22;34261;55.678;12.464;2022-09-28T04:23:28;11.70;99.90
48454;DHT22;34261;55.678;12.464;2022-09-28T04:25:54;11.70;99.90
48454;DHT22;34261;55.678;12.464;2022-09-28T04:28:20;11.70;99.90
48454;DHT22;34261;55.678;12.464;2022-09-28T04:31:12;11.60;99.90
48454;DHT22;34261;55.678;12.464;2022-09-28T04:33:39;11.50;99.90
48454;DHT22;34261;55.678;12.464;2022-09-28T04:36:05;11.50;99.90
48454;DHT22;34261;55.678;12.464;2022-09-28T04:38:31;11.60;99.90
48454;DHT22;34261;55.678;12.464;2022-09-28T04:40:57;11.50;99.90
48454;DHT22;34261;55.678;12.464;2022-09-28T04:43:23;11.60;99.90
48454;DHT22;34261;55.678;12.464;2022-09-28T04:45:49;11.60;99.90
48454;DHT22;34261;55.678;12.464;2022-09-28T04:48:15;11.50;99.90
48454;DHT22;34261;55.678;12.464;2022-09-28T04:50:41;11.50;99.90
48454;DHT22;34261;55.678;12.464;2022-09-28T04:53:07;11.50;99.90
48454;DHT22;34261;55.678;12.464;2022-09-28T04:55:33;11.50;99.90
48454;DHT22;34261;55.678;12.464;2022-09-28T04:57:59;11.50;99.90
48454;DHT22;34261;55.678;12.464;2022-09-28T05:00:30;11.50;99.90
48454;DHT22;34261;55.678;12.464;2022-09-28T05:02:59;11.50;99.90
48454;DHT22;34261;55.678;12.464;2022-09-28T05:05:25;11.50;99.90
48454;DHT22;34261;55.678;12.464;2022-09-28T05:07:51;11.40;99.90
48454;DHT22;34261;55.678;12.464;2022-09-28T05:10:16;11.40;99.90
48454;DHT22;34261;55.678;12.464;2022-09-28T05:12:43;11.40;99.90
48454;DHT22;34261;55.678;12.464;2022-09-28T05:15:09;11.30;99.90
48454;DHT22;34261;55.678;12.464;2022-09-28T05:17:35;11.30;99.90
48454;DHT22;34261;55.678;12.464;2022-09-28T05:20:00;11.40;99.90
48454;DHT22;34261;55.678;12.464;2022-09-28T05:22:27;11.30;99.90
48454;DHT22;34261;55.678;12.464;2022-09-28T05:24:53;11.30;99.90
48454;DHT22;34261;55.678;12.464;2022-09-28T05:27:19;11.30;99.90
48454;DHT22;34261;55.678;12.464;2022-09-28T05:29:45;11.30;99.90
48454;DHT22;34261;55.678;12.464;2022-09-28T05:32:11;11.30;99.90
48454;DHT22;34261;55.678;12.464;2022-09-28T05:34:36;11.30;99.90
48454;DHT22;34261;55.678;12.464;2022-09-28T05:37:02;11.40;99.90
48454;DHT22;34261;55.678;12.464;2022-09-28T05:39:28;11.40;99.90
48454;DHT22;34261;55.678;12.464;2022-09-28T05:41:54;11.30;99.90
48454;DHT22;34261;55.678;12.464;2022-09-28T05:44:22;11.40;99.90
48454;DHT22;34261;55.678;12.464;2022-09-28T05:46:47;11.40;99.90
48454;DHT22;34261;55.678;12.464;2022-09-28T05:49:13;11.40;99.90
48454;DHT22;34261;55.678;12.464;2022-09-28T05:51:39;11.40;99.90
48454;DHT22;34261;55.678;12.464;2022-09-28T05:54:05;11.50;99.90
48454;DHT22;34261;55.678;12.464;2022-09-28T05:56:30;11.40;99.90
48454;DHT22;34261;55.678;12.464;2022-09-28T05:58:56;11.50;99.90
48454;DHT22;34261;55.678;12.464;2022-09-28T06:01:23;11.50;99.90
48454;DHT22;34261;55.678;12.464;2022-09-28T06:03:49;11.50;99.90
48454;DHT22;34261;55.678;12.464;2022-09-28T06:06:14;11.50;99.90
48454;DHT22;34261;55.678;12.464;2022-09-28T06:08:40;11.50;99.90
48454;DHT22;34261;55.678;12.464;2022-09-28T06:11:08;11.50;99.90
48454;DHT22;34261;55.678;12.464;2022-09-28T06:13:37;11.60;99.90
48454;DHT22;34261;55.678;12.464;2022-09-28T06:16:05;11.60;99.90
48454;DHT22;34261;55.678;12.464;2022-09-28T06:18:32;11.60;99.90
48454;DHT22;34261;55.678;12.464;2022-09-28T06:20:58;11.60;99.90
48454;DHT22;34261;55.678;12.464;2022-09-28T06:23:23;11.60;99.90
48454;DHT22;34261;55.678;12.464;2022-09-28T06:25:49;11.70;99.90
48454;DHT22;34261;55.678;12.464;2022-09-28T06:28:15;11.70;99.90
48454;DHT22;34261;55.678;12.464;2022-09-28T06:30:41;11.70;99.90
48454;DHT22;34261;55.678;12.464;2022-09-28T06:33:10;11.80;99.90
48454;DHT22;34261;55.678;12.464;2022-09-28T06:35:37;11.80;99.90
48454;DHT22;34261;55.678;12.464;2022-09-28T06:38:03;11.80;99.90
48454;DHT22;34261;55.678;12.464;2022-09-28T06:40:29;11.90;99.90
48454;DHT22;34261;55.678;12.464;2022-09-28T06:43:01;11.90;99.90
48454;DHT22;34261;55.678;12.464;2022-09-28T06:45:28;11.90;99.90
48454;DHT22;34261;55.678;12.464;2022-09-28T06:47:56;11.90;99.90
48454;DHT22;34261;55.678;12.464;2022-09-28T06:50:28;11.90;99.90
48454;DHT22;34261;55.678;12.464;2022-09-28T06:52:57;11.90;99.90
48454;DHT22;34261;55.678;12.464;2022-09-28T06:55:23;11.90;99.90
48454;DHT22;34261;55.678;12.464;2022-09-28T06:57:58;11.90;99.90
48454;DHT22;34261;55.678;12.464;2022-09-28T07:00:29;12.00;99.90
48454;DHT22;34261;55.678;12.464;2022-09-28T07:02:55;12.00;99.90
48454;DHT22;34261;55.678;12.464;2022-09-28T07:05:21;12.00;99.90
48454;DHT22;34261;55.678;12.464;2022-09-28T07:07:54;12.10;99.90
48454;DHT22;34261;55.678;12.464;2022-09-28T07:10:25;12.20;99.90
48454;DHT22;34261;55.678;12.464;2022-09-28T07:12:52;12.30;99.90
48454;DHT22;34261;55.678;12.464;2022-09-28T07:15:18;12.30;99.90
48454;DHT22;34261;55.678;12.464;2022-09-28T07:17:44;12.40;99.90
48454;DHT22;34261;55.678;12.464;2022-09-28T07:20:10;12.40;99.90
48454;DHT22;34261;55.678;12.464;2022-09-28T07:22:36;12.40;99.90
48454;DHT22;34261;55.678;12.464;2022-09-28T07:25:06;12.30;99.90
48454;DHT22;34261;55.678;12.464;2022-09-28T07:27:32;12.30;99.90
48454;DHT22;34261;55.678;12.464;2022-09-28T07:29:58;12.30;99.90
48454;DHT22;34261;55.678;12.464;2022-09-28T07:32:24;12.40;99.90
48454;DHT22;34261;55.678;12.464;2022-09-28T07:34:51;12.40;99.90
48454;DHT22;34261;55.678;12.464;2022-09-28T07:37:18;12.40;99.90
48454;DHT22;34261;55.678;12.464;2022-09-28T07:39:44;12.40;99.90
48454;DHT22;34261;55.678;12.464;2022-09-28T07:42:29;12.40;99.90
48454;DHT22;34261;55.678;12.464;2022-09-28T07:44:56;12.40;99.90
48454;DHT22;34261;55.678;12.464;2022-09-28T07:47:22;12.50;99.90
48454;DHT22;34261;55.678;12.464;2022-09-28T07:50:00;12.70;99.90
48454;DHT22;34261;55.678;12.464;2022-09-28T07:52:25;12.70;99.90
48454;DHT22;34261;55.678;12.464;2022-09-28T07:54:55;12.70;99.90
48454;DHT22;34261;55.678;12.464;2022-09-28T07:57:22;12.70;99.90
48454;DHT22;34261;55.678;12.464;2022-09-28T07:59:49;12.70;99.90
48454;DHT22;34261;55.678;12.464;2022-09-28T08:02:16;12.80;99.90
48454;DHT22;34261;55.678;12.464;2022-09-28T08:04:48;12.70;99.90
48454;DHT22;34261;55.678;12.464;2022-09-28T08:07:14;12.80;99.90
48454;DHT22;34261;55.678;12.464;2022-09-28T08:09:44;12.90;99.90
48454;DHT22;34261;55.678;12.464;2022-09-28T08:12:11;12.80;99.90
48454;DHT22;34261;55.678;12.464;2022-09-28T08:14:38;12.90;99.90
48454;DHT22;34261;55.678;12.464;2022-09-28T08:17:05;12.90;99.90
48454;DHT22;34261;55.678;12.464;2022-09-28T08:36:48;13.70;99.90
48454;DHT22;34261;55.678;12.464;2022-09-28T08:39:14;13.60;99.90
48454;DHT22;34261;55.678;12.464;2022-09-28T08:41:47;13.50;99.90
48454;DHT22;34261;55.678;12.464;2022-09-28T08:44:20;13.50;99.90
48454;DHT22;34261;55.678;12.464;2022-09-28T08:46:49;13.50;99.90
48454;DHT22;34261;55.678;12.464;2022-09-28T09:04:56;14.10;99.90
48454;DHT22;34261;55.678;12.464;2022-09-28T09:09:57;14.10;99.90
48454;DHT22;34261;55.678;12.464;2022-09-28T09:17:41;14.10;99.90
48454;DHT22;34261;55.678;12.464;2022-09-28T09:22:58;14.20;99.90
48454;DHT22;34261;55.678;12.464;2022-09-28T09:25:25;14.20;99.90
48454;DHT22;34261;55.678;12.464;2022-09-28T09:30:40;14.30;99.90
48454;DHT22;34261;55.678;12.464;2022-09-28T09:36:11;14.40;99.90
48454;DHT22;34261;55.678;12.464;2022-09-28T09:41:36;14.30;99.90
48454;DHT22;34261;55.678;12.464;2022-09-28T09:49:25;14.50;99.90
48454;DHT22;34261;55.678;12.464;2022-09-28T09:54:48;14.60;99.90
48454;DHT22;34261;55.678;12.464;2022-09-28T09:57:16;14.60;99.90
48454;DHT22;34261;55.678;12.464;2022-09-28T09:59:43;14.70;99.90
48454;DHT22;34261;55.678;12.464;2022-09-28T10:02:24;14.80;99.90
48454;DHT22;34261;55.678;12.464;2022-09-28T10:05:01;14.80;99.90
48454;DHT22;34261;55.678;12.464;2022-09-28T10:07:33;14.80;99.90
48454;DHT22;34261;55.678;12.464;2022-09-28T10:10:01;14.80;99.90
48454;DHT22;34261;55.678;12.464;2022-09-28T10:12:27;14.90;99.90
48454;DHT22;34261;55.678;12.464;2022-09-28T10:14:53;14.90;99.90
48454;DHT22;34261;55.678;12.464;2022-09-28T10:17:20;15.00;99.90
48454;DHT22;34261;55.678;12.464;2022-09-28T10:19:51;15.00;99.90
48454;DHT22;34261;55.678;12.464;2022-09-28T10:22:19;15.00;99.90
48454;DHT22;34261;55.678;12.464;2022-09-28T10:24:46;15.00;99.90
48454;DHT22;34261;55.678;12.464;2022-09-28T10:27:14;15.00;99.90
48454;DHT22;34261;55.678;12.464;2022-09-28T10:29:43;15.00;99.90
48454;DHT22;34261;55.678;12.464;2022-09-28T10:32:16;15.00;99.90
48454;DHT22;34261;55.678;12.464;2022-09-28T10:34:42;15.00;99.90
48454;DHT22;34261;55.678;12.464;2022-09-28T10:37:08;15.10;99.90
48454;DHT22;34261;55.678;12.464;2022-09-28T10:42:07;15.10;99.90
48454;DHT22;34261;55.678;12.464;2022-09-28T10:44:34;15.20;99.90
48454;DHT22;34261;55.678;12.464;2022-09-28T10:47:04;15.30;99.90
48454;DHT22;34261;55.678;12.464;2022-09-28T10:49:39;15.30;99.90
48454;DHT22;34261;55.678;12.464;2022-09-28T10:52:08;15.40;99.90
48454;DHT22;34261;55.678;12.464;2022-09-28T10:54:53;15.50;99.90
48454;DHT22;34261;55.678;12.464;2022-09-28T10:57:26;15.60;99.90
48454;DHT22;34261;55.678;12.464;2022-09-28T10:59:53;15.60;99.90
48454;DHT22;34261;55.678;12.464;2022-09-28T11:02:20;15.50;99.90
48454;DHT22;34261;55.678;12.464;2022-09-28T11:05:04;15.50;99.90
48454;DHT22;34261;55.678;12.464;2022-09-28T11:07:31;15.50;99.90
48454;DHT22;34261;55.678;12.464;2022-09-28T11:09:58;15.40;99.90
48454;DHT22;34261;55.678;12.464;2022-09-28T11:12:26;15.40;99.90
48454;DHT22;34261;55.678;12.464;2022-09-28T11:14:56;15.50;99.90
48454;DHT22;34261;55.678;12.464;2022-09-28T11:19:48;15.40;99.90
48454;DHT22;34261;55.678;12.464;2022-09-28T11:22:18;15.30;99.90
48454;DHT22;34261;55.678;12.464;2022-09-28T11:24:45;15.40;99.90
48454;DHT22;34261;55.678;12.464;2022-09-28T11:27:21;15.40;99.90
48454;DHT22;34261;55.678;12.464;2022-09-28T11:30:09;15.40;99.90
48454;DHT22;34261;55.678;12.464;2022-09-28T11:32:40;15.50;99.90
48454;DHT22;34261;55.678;12.464;2022-09-28T11:35:11;15.40;99.90
48454;DHT22;34261;55.678;12.464;2022-09-28T11:40:29;15.50;99.90
48454;DHT22;34261;55.678;12.464;2022-09-28T11:48:14;15.70;99.90
48454;DHT22;34261;55.678;12.464;2022-09-28T11:50:52;15.70;99.90
48454;DHT22;34261;55.678;12.464;2022-09-28T11:53:23;15.60;99.90
48454;DHT22;34261;55.678;12.464;2022-09-28T12:01:07;15.70;99.90
48454;DHT22;34261;55.678;12.464;2022-09-28T12:03:44;15.60;99.90
48454;DHT22;34261;55.678;12.464;2022-09-28T12:06:13;15.50;99.90
48454;DHT22;34261;55.678;12.464;2022-09-28T12:08:40;15.50;99.90
48454;DHT22;34261;55.678;12.464;2022-09-28T12:11:14;15.50;99.90
48454;DHT22;34261;55.678;12.464;2022-09-28T12:13:42;15.50;99.90
48454;DHT22;34261;55.678;12.464;2022-09-28T12:16:14;15.60;99.90
48454;DHT22;34261;55.678;12.464;2022-09-28T12:23:39;15.60;99.90
48454;DHT22;34261;55.678;12.464;2022-09-28T12:28:41;15.60;99.90
48454;DHT22;34261;55.678;12.464;2022-09-28T12:31:10;15.50;99.90
48454;DHT22;34261;55.678;12.464;2022-09-28T12:33:37;15.50;99.90
48454;DHT22;34261;55.678;12.464;2022-09-28T12:46:46;15.40;99.90
48454;DHT22;34261;55.678;12.464;2022-09-28T12:51:58;15.30;99.90
48454;DHT22;34261;55.678;12.464;2022-09-28T12:59:52;15.30;99.90
48454;DHT22;34261;55.678;12.464;2022-09-28T13:05:20;15.30;99.90
48454;DHT22;34261;55.678;12.464;2022-09-28T13:10:23;15.30;99.90
48454;DHT22;34261;55.678;12.464;2022-09-28T13:13:00;15.30;99.90
48454;DHT22;34261;55.678;12.464;2022-09-28T13:18:02;15.20;99.90
48454;DHT22;34261;55.678;12.464;2022-09-28T13:20:43;15.20;99.90
48454;DHT22;34261;55.678;12.464;2022-09-28T13:23:18;15.10;99.90
48454;DHT22;34261;55.678;12.464;2022-09-28T13:25:47;15.10;99.90
48454;DHT22;34261;55.678;12.464;2022-09-28T13:28:14;15.00;99.90
48454;DHT22;34261;55.678;12.464;2022-09-28T13:30:41;15.00;99.90
48454;DHT22;34261;55.678;12.464;2022-09-28T13:33:09;15.00;99.90
48454;DHT22;34261;55.678;12.464;2022-09-28T13:35:41;15.00;99.90
48454;DHT22;34261;55.678;12.464;2022-09-28T13:43:29;15.10;99.90
48454;DHT22;34261;55.678;12.464;2022-09-28T13:45:55;15.20;99.90
48454;DHT22;34261;55.678;12.464;2022-09-28T13:48:45;15.20;99.90
48454;DHT22;34261;55.678;12.464;2022-09-28T13:59:00;15.20;99.90
48454;DHT22;34261;55.678;12.464;2022-09-28T14:01:50;15.10;99.90
48454;DHT22;34261;55.678;12.464;2022-09-28T14:04:20;15.10;99.90
48454;DHT22;34261;55.678;12.464;2022-09-28T14:06:52;15.10;99.90
48454;DHT22;34261;55.678;12.464;2022-09-28T14:14:23;15.10;99.90
48454;DHT22;34261;55.678;12.464;2022-09-28T14:16:50;15.10;99.90
48454;DHT22;34261;55.678;12.464;2022-09-28T14:19:22;15.10;99.90
48454;DHT22;34261;55.678;12.464;2022-09-28T14:29:46;15.00;99.90
48454;DHT22;34261;55.678;12.464;2022-09-28T14:32:23;15.00;99.90
48454;DHT22;34261;55.678;12.464;2022-09-28T14:35:22;15.00;99.90
48454;DHT22;34261;55.678;12.464;2022-09-28T14:37:40;15.00;99.90
48454;DHT22;34261;55.678;12.464;2022-09-28T14:40:35;15.00;99.90
48454;DHT22;34261;55.678;12.464;2022-09-28T14:53:52;14.90;99.90
48454;DHT22;34261;55.678;12.464;2022-09-28T14:56:18;14.80;99.90
48454;DHT22;34261;55.678;12.464;2022-09-28T14:58:44;14.80;99.90
48454;DHT22;34261;55.678;12.464;2022-09-28T15:01:13;14.80;99.90
48454;DHT22;34261;55.678;12.464;2022-09-28T15:03:44;14.90;99.90
48454;DHT22;34261;55.678;12.464;2022-09-28T15:06:14;14.90;99.90
48454;DHT22;34261;55.678;12.464;2022-09-28T15:08:40;14.80;99.90
48454;DHT22;34261;55.678;12.464;2022-09-28T15:11:09;14.80;99.90
48454;DHT22;34261;55.678;12.464;2022-09-28T15:13:36;14.70;99.90
48454;DHT22;34261;55.678;12.464;2022-09-28T15:16:05;14.70;99.90
48454;DHT22;34261;55.678;12.464;2022-09-28T15:18:37;14.70;99.90
48454;DHT22;34261;55.678;12.464;2022-09-28T15:21:09;14.60;99.90
48454;DHT22;34261;55.678;12.464;2022-09-28T15:23:35;14.70;99.90
48454;DHT22;34261;55.678;12.464;2022-09-28T15:26:02;14.70;99.90
48454;DHT22;34261;55.678;12.464;2022-09-28T15:28:28;14.60;99.90
48454;DHT22;34261;55.678;12.464;2022-09-28T15:30:58;14.50;99.90
48454;DHT22;34261;55.678;12.464;2022-09-28T15:33:25;14.60;99.90
48454;DHT22;34261;55.678;12.464;2022-09-28T15:36:11;14.50;99.90
48454;DHT22;34261;55.678;12.464;2022-09-28T15:38:39;14.50;99.90
48454;DHT22;34261;55.678;12.464;2022-09-28T15:41:05;14.50;99.90
48454;DHT22;34261;55.678;12.464;2022-09-28T15:43:32;14.50;99.90
48454;DHT22;34261;55.678;12.464;2022-09-28T15:46:19;14.50;99.90
48454;DHT22;34261;55.678;12.464;2022-09-28T15:48:46;14.40;99.90
48454;DHT22;34261;55.678;12.464;2022-09-28T15:51:15;14.40;99.90
48454;DHT22;34261;55.678;12.464;2022-09-28T15:53:42;14.40;99.90
48454;DHT22;34261;55.678;12.464;2022-09-28T15:56:11;14.40;99.90
48454;DHT22;34261;55.678;12.464;2022-09-28T15:58:37;14.30;99.90
48454;DHT22;34261;55.678;12.464;2022-09-28T16:01:17;14.40;99.90
48454;DHT22;34261;55.678;12.464;2022-09-28T16:03:44;14.40;99.90
48454;DHT22;34261;55.678;12.464;2022-09-28T16:06:09;14.30;99.90
48454;DHT22;34261;55.678;12.464;2022-09-28T16:11:11;14.20;99.90
48454;DHT22;34261;55.678;12.464;2022-09-28T16:14:21;14.30;99.90
48454;DHT22;34261;55.678;12.464;2022-09-28T16:16:35;14.20;99.90
48454;DHT22;34261;55.678;12.464;2022-09-28T16:19:02;14.20;99.90
48454;DHT22;34261;55.678;12.464;2022-09-28T16:21:34;14.20;99.90
48454;DHT22;34261;55.678;12.464;2022-09-28T16:24:02;14.20;99.90
48454;DHT22;34261;55.678;12.464;2022-09-28T16:26:32;14.10;99.90
48454;DHT22;34261;55.678;12.464;2022-09-28T16:28:58;14.10;99.90
48454;DHT22;34261;55.678;12.464;2022-09-28T16:31:25;14.10;99.90
48454;DHT22;34261;55.678;12.464;2022-09-28T16:36:18;14.10;99.90
48454;DHT22;34261;55.678;12.464;2022-09-28T16:38:45;14.00;99.90
48454;DHT22;34261;55.678;12.464;2022-09-28T16:41:10;14.00;99.90
48454;DHT22;34261;55.678;12.464;2022-09-28T16:43:37;14.00;99.90
48454;DHT22;34261;55.678;12.464;2022-09-28T16:46:06;13.90;99.90
48454;DHT22;34261;55.678;12.464;2022-09-28T16:48:34;13.90;99.90
48454;DHT22;34261;55.678;12.464;2022-09-28T16:51:00;13.90;99.90
48454;DHT22;34261;55.678;12.464;2022-09-28T16:53:26;13.90;99.90
48454;DHT22;34261;55.678;12.464;2022-09-28T16:56:10;13.90;99.90
48454;DHT22;34261;55.678;12.464;2022-09-28T16:58:36;13.90;99.90
48454;DHT22;34261;55.678;12.464;2022-09-28T17:01:03;13.90;99.90
48454;DHT22;34261;55.678;12.464;2022-09-28T17:03:29;13.90;99.90
48454;DHT22;34261;55.678;12.464;2022-09-28T17:05:55;13.90;99.90
48454;DHT22;34261;55.678;12.464;2022-09-28T17:08:21;13.80;99.90
48454;DHT22;34261;55.678;12.464;2022-09-28T17:10:55;13.80;99.90
48454;DHT22;34261;55.678;12.464;2022-09-28T17:13:22;13.70;99.90
48454;DHT22;34261;55.678;12.464;2022-09-28T17:15:53;13.70;99.90
48454;DHT22;34261;55.678;12.464;2022-09-28T17:18:18;13.70;99.90
48454;DHT22;34261;55.678;12.464;2022-09-28T17:20:45;13.70;99.90
48454;DHT22;34261;55.678;12.464;2022-09-28T17:23:12;13.70;99.90
48454;DHT22;34261;55.678;12.464;2022-09-28T17:25:38;13.60;99.90
48454;DHT22;34261;55.678;12.464;2022-09-28T17:28:04;13.70;99.90
48454;DHT22;34261;55.678;12.464;2022-09-28T17:30:30;13.70;99.90
48454;DHT22;34261;55.678;12.464;2022-09-28T17:32:56;13.60;99.90
48454;DHT22;34261;55.678;12.464;2022-09-28T17:35:23;13.60;99.90
48454;DHT22;34261;55.678;12.464;2022-09-28T17:37:48;13.60;99.90
48454;DHT22;34261;55.678;12.464;2022-09-28T17:40:19;13.60;99.90
48454;DHT22;34261;55.678;12.464;2022-09-28T17:42:45;13.60;99.90
48454;DHT22;34261;55.678;12.464;2022-09-28T17:45:12;13.60;99.90
48454;DHT22;34261;55.678;12.464;2022-09-28T17:47:38;13.60;99.90
48454;DHT22;34261;55.678;12.464;2022-09-28T17:50:23;13.50;99.90
48454;DHT22;34261;55.678;12.464;2022-09-28T17:52:50;13.50;99.90
48454;DHT22;34261;55.678;12.464;2022-09-28T17:55:20;13.50;99.90
48454;DHT22;34261;55.678;12.464;2022-09-28T17:57:46;13.50;99.90
48454;DHT22;34261;55.678;12.464;2022-09-28T18:00:12;13.50;99.90
48454;DHT22;34261;55.678;12.464;2022-09-28T18:02:38;13.50;99.90
48454;DHT22;34261;55.678;12.464;2022-09-28T18:05:04;13.50;99.90
48454;DHT22;34261;55.678;12.464;2022-09-28T18:07:32;13.50;99.90
48454;DHT22;34261;55.678;12.464;2022-09-28T18:09:59;13.40;99.90
48454;DHT22;34261;55.678;12.464;2022-09-28T18:12:24;13.40;99.90
48454;DHT22;34261;55.678;12.464;2022-09-28T18:14:50;13.40;99.90
48454;DHT22;34261;55.678;12.464;2022-09-28T18:17:16;13.40;99.90
48454;DHT22;34261;55.678;12.464;2022-09-28T18:19:41;13.40;99.90
48454;DHT22;34261;55.678;12.464;2022-09-28T18:22:07;13.40;99.90
48454;DHT22;34261;55.678;12.464;2022-09-28T18:24:32;13.30;99.90
48454;DHT22;34261;55.678;12.464;2022-09-28T18:26:58;13.30;99.90
48454;DHT22;34261;55.678;12.464;2022-09-28T18:29:23;13.30;99.90
48454;DHT22;34261;55.678;12.464;2022-09-28T18:31:49;13.30;99.90
48454;DHT22;34261;55.678;12.464;2022-09-28T18:34:14;13.20;99.90
48454;DHT22;34261;55.678;12.464;2022-09-28T18:36:41;13.30;99.90
48454;DHT22;34261;55.678;12.464;2022-09-28T18:39:07;13.20;99.90
48454;DHT22;34261;55.678;12.464;2022-09-28T18:41:32;13.20;99.90
48454;DHT22;34261;55.678;12.464;2022-09-28T18:43:58;13.20;99.90